createdAt,value
2019-05-23T00:00:09.273Z,60.13
2019-05-23T00:03:00.613Z,60.01
2019-05-23T00:05:58.282Z,60.03
2019-05-23T00:08:51.278Z,60.14
2019-05-23T00:11:34.114Z,60.03
2019-05-23T00:14:20.776Z,59.93
2019-05-23T00:16:57.123Z,59.82
2019-05-23T00:19:33.387Z,60.11
2019-05-23T00:22:09.879Z,60.11
2019-05-23T00:24:43.876Z,59.96
2019-05-23T00:27:18.241Z,59.74
2019-05-23T00:29:53.599Z,60.10
2019-05-23T00:32:46.541Z,60.10
2019-05-23T00:35:22.103Z,59.78
2019-05-23T00:37:57.273Z,59.94
2019-05-23T00:40:31.714Z,59.99
2019-05-23T00:43:07.407Z,59.82
2019-05-23T00:45:42.273Z,59.81
2019-05-23T00:48:17.675Z,59.70
2019-05-23T00:50:53.220Z,59.94
2019-05-23T00:53:28.528Z,59.72
2019-05-23T00:56:02.942Z,59.66
2019-05-23T00:58:37.643Z,59.57
2019-05-23T01:01:13.942Z,59.48
2019-05-23T01:03:48.861Z,59.40
2019-05-23T01:06:22.290Z,59.35
2019-05-23T01:08:58.750Z,59.14
2019-05-23T01:11:33.780Z,59.14
2019-05-23T01:14:07.276Z,59.35
2019-05-23T01:16:42.288Z,59.21
2019-05-23T01:19:18.281Z,59.37
2019-05-23T01:22:05.350Z,59.35
2019-05-23T01:24:42.270Z,59.10
2019-05-23T01:27:17.506Z,59.10
2019-05-23T01:29:52.702Z,59.27
2019-05-23T01:32:42.315Z,59.32
2019-05-23T01:35:21.277Z,59.17
2019-05-23T01:37:57.282Z,59.17
2019-05-23T01:40:32.268Z,59.14
2019-05-23T01:43:08.304Z,59.00
2019-05-23T01:45:44.110Z,59.00
2019-05-23T01:48:20.104Z,59.22
2019-05-23T01:50:54.883Z,59.28
2019-05-23T01:53:30.117Z,59.28
2019-05-23T01:56:04.677Z,59.18
2019-05-23T01:58:40.284Z,59.20
2019-05-23T02:01:16.131Z,59.22
2019-05-23T02:03:51.264Z,59.22
2019-05-23T02:06:25.683Z,59.39
2019-05-23T02:08:58.998Z,59.20
2019-05-23T02:11:33.031Z,59.36
2019-05-23T02:14:08.303Z,59.07
2019-05-23T02:16:42.673Z,59.14
2019-05-23T02:19:18.431Z,59.14
2019-05-23T02:21:52.947Z,59.21
2019-05-23T02:24:28.135Z,59.15
2019-05-23T02:27:03.328Z,59.32
2019-05-23T02:29:37.775Z,59.32
2019-05-23T02:32:11.521Z,59.37
2019-05-23T02:34:46.348Z,59.29
2019-05-23T02:37:48.285Z,59.24
2019-05-23T02:40:30.311Z,59.10
2019-05-23T02:43:07.266Z,59.19
2019-05-23T02:45:48.301Z,59.27
2019-05-23T02:48:26.557Z,59.66
2019-05-23T02:51:05.289Z,60.04
2019-05-23T02:53:40.940Z,60.21
2019-05-23T02:56:18.349Z,60.22
2019-05-23T02:59:27.121Z,60.09
2019-05-23T03:02:55.382Z,60.06
2019-05-23T03:05:31.731Z,60.70
2019-05-23T03:08:09.143Z,61.19
2019-05-23T03:10:59.119Z,62.09
2019-05-23T03:13:36.507Z,62.09
2019-05-23T03:16:17.145Z,62.79
2019-05-23T03:19:00.286Z,62.81
2019-05-23T03:21:36.496Z,62.69
2019-05-23T03:24:11.291Z,62.61
2019-05-23T03:27:15.594Z,62.73
2019-05-23T03:29:50.332Z,62.52
2019-05-23T03:32:42.730Z,62.88
2019-05-23T03:35:24.948Z,62.88
2019-05-23T03:38:00.277Z,62.74
2019-05-23T03:40:35.670Z,62.74
2019-05-23T03:43:10.357Z,63.11
2019-05-23T03:45:54.663Z,62.52
2019-05-23T03:48:30.126Z,62.48
2019-05-23T03:51:05.410Z,62.45
2019-05-23T03:53:41.740Z,62.45
2019-05-23T03:56:16.284Z,62.19
2019-05-23T03:58:52.274Z,62.26
2019-05-23T04:01:46.119Z,62.26
2019-05-23T04:04:06.675Z,62.21
2019-05-23T04:06:41.345Z,62.21
2019-05-23T04:09:16.500Z,62.16
2019-05-23T04:11:51.274Z,62.32
2019-05-23T04:14:25.932Z,62.38
2019-05-23T04:17:00.310Z,62.42
2019-05-23T04:19:34.938Z,62.31
2019-05-23T04:22:10.286Z,62.14
2019-05-23T04:26:32.775Z,61.50
2019-05-23T04:29:06.470Z,61.13
2019-05-23T04:31:41.089Z,60.75
2019-05-23T04:34:15.643Z,60.79
2019-05-23T04:36:50.642Z,60.79
2019-05-23T04:39:25.269Z,60.78
2019-05-23T04:42:00.114Z,60.53
2019-05-23T04:44:35.478Z,60.09
2019-05-23T04:47:10.543Z,60.09
2019-05-23T04:49:45.409Z,60.01
2019-05-23T04:52:21.295Z,60.19
2019-05-23T04:54:55.906Z,59.83
2019-05-23T04:57:31.265Z,59.83
2019-05-23T05:00:08.068Z,59.72
2019-05-23T05:02:45.272Z,59.36
2019-05-23T05:05:20.813Z,59.44
2019-05-23T05:07:54.281Z,59.06
2019-05-23T05:10:29.637Z,58.95
2019-05-23T05:13:04.283Z,58.95
2019-05-23T05:15:38.757Z,58.87
2019-05-23T05:18:12.288Z,58.97
2019-05-23T05:20:46.941Z,58.54
2019-05-23T05:23:23.821Z,58.54
2019-05-23T05:25:57.041Z,58.39
2019-05-23T05:28:31.653Z,58.11
2019-05-23T05:31:06.672Z,57.69
2019-05-23T05:33:41.267Z,57.69
2019-05-23T05:36:15.927Z,57.95
2019-05-23T05:38:49.619Z,57.41
2019-05-23T05:41:24.277Z,56.70
2019-05-23T05:43:59.283Z,55.46
2019-05-23T05:46:34.301Z,55.46
2019-05-23T05:49:10.282Z,54.79
2019-05-23T05:51:45.276Z,54.19
2019-05-23T05:54:19.777Z,53.62
2019-05-23T05:56:52.875Z,52.87
2019-05-23T05:59:28.283Z,53.37
2019-05-23T06:02:04.633Z,52.80
2019-05-23T06:04:39.873Z,52.64
2019-05-23T06:07:31.289Z,52.00
2019-05-23T06:10:09.528Z,52.20
2019-05-23T06:12:44.282Z,51.95
2019-05-23T06:15:19.557Z,51.97
2019-05-23T06:17:54.180Z,52.39
2019-05-23T06:20:29.642Z,52.45
2019-05-23T06:23:05.786Z,51.64
2019-05-23T06:25:38.993Z,51.64
2019-05-23T06:28:12.273Z,52.26
2019-05-23T06:30:48.280Z,51.24
2019-05-23T06:33:24.504Z,51.24
2019-05-23T06:35:59.283Z,51.25
2019-05-23T06:38:34.433Z,50.54
2019-05-23T06:41:11.403Z,49.96
2019-05-23T06:43:45.942Z,48.68
2019-05-23T06:46:20.286Z,49.08
2019-05-23T06:48:54.875Z,47.92
2019-05-23T06:51:29.539Z,47.92
2019-05-23T06:54:05.348Z,48.21
2019-05-23T06:56:40.342Z,47.97
2019-05-23T06:59:15.942Z,48.40
2019-05-23T07:01:50.357Z,48.72
2019-05-23T07:04:25.274Z,48.13
2019-05-23T07:07:00.659Z,48.27
2019-05-23T07:09:35.338Z,46.99
2019-05-23T07:12:10.280Z,46.99
2019-05-23T07:14:45.281Z,46.60
2019-05-23T07:17:21.508Z,45.71
2019-05-23T07:19:56.263Z,45.71
2019-05-23T07:22:31.071Z,44.11
2019-05-23T07:25:07.275Z,43.51
2019-05-23T07:27:41.978Z,43.51
2019-05-23T07:30:22.879Z,43.58
2019-05-23T07:32:58.264Z,45.55
2019-05-23T07:35:33.111Z,43.44
2019-05-23T07:38:07.825Z,43.56
2019-05-23T07:40:41.088Z,44.01
2019-05-23T07:43:17.288Z,44.01
2019-05-23T07:45:55.745Z,44.05
2019-05-23T07:48:29.484Z,43.17
2019-05-23T07:51:04.288Z,40.65
2019-05-23T07:53:56.437Z,39.60
2019-05-23T07:56:33.457Z,39.60
2019-05-23T07:59:08.294Z,39.03
2019-05-23T08:01:47.389Z,37.82
2019-05-23T08:04:23.313Z,38.36
2019-05-23T08:06:59.687Z,39.08
2019-05-23T08:09:33.288Z,39.08
2019-05-23T08:12:07.975Z,39.88
2019-05-23T08:14:42.329Z,39.88
2019-05-23T08:17:18.135Z,40.21
2019-05-23T08:19:52.930Z,41.12
2019-05-23T08:22:27.873Z,41.12
2019-05-23T08:25:02.675Z,41.21
2019-05-23T08:27:35.865Z,40.71
2019-05-23T08:30:10.723Z,41.75
2019-05-23T08:32:44.273Z,40.48
2019-05-23T08:35:18.769Z,41.11
2019-05-23T08:37:53.286Z,41.11
2019-05-23T08:40:29.675Z,40.14
2019-05-23T08:43:04.778Z,39.13
2019-05-23T08:45:38.814Z,40.16
2019-05-23T08:48:13.479Z,38.19
2019-05-23T08:50:51.270Z,38.43
2019-05-23T08:53:26.463Z,40.11
2019-05-23T08:56:02.019Z,37.54
2019-05-23T08:58:37.251Z,37.33
2019-05-23T09:01:11.946Z,37.33
2019-05-23T09:03:47.557Z,36.43
2019-05-23T09:06:22.247Z,36.43
2019-05-23T09:08:56.951Z,37.87
2019-05-23T09:11:31.282Z,37.75
2019-05-23T09:14:08.379Z,34.47
2019-05-23T09:16:43.289Z,34.11
2019-05-23T09:19:18.280Z,33.07
2019-05-23T09:21:57.814Z,32.25
2019-05-23T09:24:30.831Z,30.75
2019-05-23T09:27:06.956Z,30.81
2019-05-23T09:29:41.282Z,30.75
2019-05-23T09:32:15.959Z,27.89
2019-05-23T09:34:50.279Z,27.38
2019-05-23T09:37:25.308Z,26.65
2019-05-23T09:40:00.406Z,26.76
2019-05-23T09:42:35.285Z,27.19
2019-05-23T09:45:10.645Z,29.34
2019-05-23T09:47:44.272Z,30.79
2019-05-23T09:50:21.389Z,29.04
2019-05-23T09:52:56.615Z,28.71
2019-05-23T09:55:32.337Z,26.20
2019-05-23T09:58:06.948Z,27.07
2019-05-23T10:00:42.272Z,28.28
2019-05-23T10:03:16.893Z,28.28
2019-05-23T10:05:51.729Z,25.41
2019-05-23T10:08:26.634Z,23.18
2019-05-23T10:11:01.575Z,24.57
2019-05-23T10:13:39.448Z,25.18
2019-05-23T10:16:12.448Z,24.97
2019-05-23T10:18:47.316Z,27.05
2019-05-23T10:21:21.942Z,28.74
2019-05-23T10:23:56.658Z,24.33
2019-05-23T10:26:31.439Z,24.33
2019-05-23T10:29:06.580Z,24.11
2019-05-23T10:31:42.304Z,21.74
2019-05-23T10:34:16.939Z,23.53
2019-05-23T10:36:51.726Z,23.35
2019-05-23T10:39:27.972Z,22.33
2019-05-23T10:42:02.812Z,23.04
2019-05-23T10:44:37.307Z,23.11
2019-05-23T10:47:12.938Z,21.05
2019-05-23T10:49:47.766Z,21.74
2019-05-23T10:52:21.104Z,21.79
2019-05-23T10:54:55.597Z,21.43
2019-05-23T10:57:30.593Z,21.40
2019-05-23T11:00:05.700Z,21.10
2019-05-23T11:02:40.848Z,21.62
2019-05-23T11:05:17.288Z,20.16
2019-05-23T11:07:51.944Z,20.90
2019-05-23T11:10:27.380Z,20.52
2019-05-23T11:13:01.951Z,20.07
2019-05-23T11:15:37.294Z,19.23
2019-05-23T11:18:12.300Z,19.23
2019-05-23T11:20:47.085Z,19.83
2019-05-23T11:23:26.410Z,19.51
2019-05-23T11:26:02.355Z,19.51
2019-05-23T11:28:38.281Z,19.38
2019-05-23T11:31:14.091Z,19.33
2019-05-23T11:33:48.735Z,19.17
2019-05-23T11:36:35.043Z,18.97
2019-05-23T11:38:57.560Z,18.08
2019-05-23T11:41:32.293Z,18.08
2019-05-23T11:44:58.373Z,18.02
2019-05-23T11:47:34.278Z,17.90
2019-05-23T11:50:11.859Z,17.61
2019-05-23T11:52:46.303Z,17.61
2019-05-23T11:55:20.959Z,16.82
2019-05-23T11:57:56.286Z,16.04
2019-05-23T12:01:34.419Z,17.34
2019-05-23T12:04:14.316Z,16.60
2019-05-23T12:07:06.603Z,16.40
2019-05-23T12:09:42.279Z,15.56
2019-05-23T12:12:17.491Z,15.57
2019-05-23T12:14:52.273Z,15.72
2019-05-23T12:17:29.428Z,15.48
2019-05-23T12:20:04.474Z,15.52
2019-05-23T12:22:38.075Z,15.52
2019-05-23T12:25:23.326Z,15.65
2019-05-23T12:27:50.678Z,14.90
2019-05-23T12:30:25.714Z,14.90
2019-05-23T12:32:59.050Z,14.65
2019-05-23T12:35:33.750Z,15.67
2019-05-23T12:38:07.656Z,14.24
2019-05-23T12:40:42.279Z,14.50
2019-05-23T12:43:16.733Z,14.65
2019-05-23T12:45:50.349Z,17.34
2019-05-23T12:48:52.424Z,15.04
2019-05-23T12:51:31.259Z,15.04
2019-05-23T12:54:06.958Z,14.42
2019-05-23T12:56:42.267Z,15.31
2019-05-23T12:59:17.274Z,16.77
2019-05-23T13:01:54.377Z,16.77
2019-05-23T13:04:29.278Z,14.08
2019-05-23T13:07:04.865Z,13.03
2019-05-23T13:09:39.403Z,14.63
2019-05-23T13:12:16.411Z,14.63
2019-05-23T13:14:53.540Z,14.48
2019-05-23T13:17:27.355Z,14.48
2019-05-23T13:20:02.265Z,15.56
2019-05-23T13:22:37.278Z,15.89
2019-05-23T13:25:14.268Z,15.96
2019-05-23T13:27:48.790Z,14.37
2019-05-23T13:30:22.541Z,14.82
2019-05-23T13:32:57.702Z,15.34
2019-05-23T13:35:32.295Z,15.35
2019-05-23T13:38:07.282Z,15.98
2019-05-23T13:40:42.280Z,16.36
2019-05-23T13:43:16.916Z,16.44
2019-05-23T13:45:51.662Z,16.92
2019-05-23T13:48:28.299Z,17.70
2019-05-23T13:51:02.888Z,18.45
2019-05-23T13:53:38.269Z,18.53
2019-05-23T13:56:12.922Z,18.53
2019-05-23T13:58:49.094Z,18.65
2019-05-23T14:01:23.668Z,18.02
2019-05-23T14:03:57.085Z,18.02
2019-05-23T14:06:31.792Z,17.57
2019-05-23T14:09:25.902Z,17.76
2019-05-23T14:12:20.195Z,17.90
2019-05-23T14:14:35.280Z,17.66
2019-05-23T14:17:20.460Z,17.34
2019-05-23T14:19:55.285Z,17.79
2019-05-23T14:22:31.361Z,18.27
2019-05-23T14:25:07.326Z,18.27
2019-05-23T14:27:53.896Z,18.10
2019-05-23T14:30:45.664Z,18.47
2019-05-23T14:33:31.287Z,18.66
2019-05-23T14:36:08.766Z,18.93
2019-05-23T14:38:44.489Z,18.93
2019-05-23T14:41:19.314Z,19.41
2019-05-23T14:43:54.565Z,19.59
2019-05-23T14:46:32.654Z,19.63
2019-05-23T14:49:12.803Z,19.92
2019-05-23T14:52:06.097Z,19.66
2019-05-23T14:54:43.627Z,17.90
2019-05-23T14:57:18.738Z,17.90
2019-05-23T14:59:52.270Z,19.93
2019-05-23T15:02:27.139Z,20.44
2019-05-23T15:05:01.757Z,21.87
2019-05-23T15:07:36.281Z,22.86
2019-05-23T15:10:11.310Z,22.75
2019-05-23T15:12:45.920Z,21.09
2019-05-23T15:15:20.487Z,21.36
2019-05-23T15:17:55.255Z,22.63
2019-05-23T15:20:30.330Z,23.25
2019-05-23T15:23:05.282Z,22.98
2019-05-23T15:25:39.989Z,23.26
2019-05-23T15:28:14.657Z,23.90
2019-05-23T15:30:49.387Z,24.70
2019-05-23T15:33:24.280Z,25.07
2019-05-23T15:35:59.116Z,24.56
2019-05-23T15:38:33.700Z,25.22
2019-05-23T15:41:07.361Z,25.65
2019-05-23T15:43:42.279Z,25.71
2019-05-23T15:46:16.896Z,26.39
2019-05-23T15:48:51.392Z,26.78
2019-05-23T15:51:31.481Z,27.22
2019-05-23T15:54:11.687Z,27.92
2019-05-23T15:57:02.306Z,28.75
2019-05-23T16:00:01.204Z,28.26
2019-05-23T16:02:42.355Z,28.26
2019-05-23T16:05:18.283Z,28.75
2019-05-23T16:07:53.256Z,29.62
2019-05-23T16:10:29.259Z,29.09
2019-05-23T16:13:04.264Z,28.22
2019-05-23T16:15:39.707Z,28.60
2019-05-23T16:18:12.894Z,28.60
2019-05-23T16:20:47.322Z,28.65
2019-05-23T16:23:21.956Z,29.00
2019-05-23T16:25:56.742Z,29.00
2019-05-23T16:28:31.385Z,30.56
2019-05-23T16:31:06.281Z,30.56
2019-05-23T16:33:41.913Z,30.01
2019-05-23T16:36:17.001Z,31.73
2019-05-23T16:38:51.737Z,32.08
2019-05-23T16:41:27.589Z,32.18
2019-05-23T16:44:01.956Z,31.05
2019-05-23T16:46:36.671Z,31.79
2019-05-23T16:49:11.633Z,31.89
2019-05-23T16:51:46.180Z,32.96
2019-05-23T16:54:23.291Z,32.72
2019-05-23T16:57:17.294Z,32.96
2019-05-23T17:00:02.351Z,33.17
2019-05-23T17:02:48.290Z,33.17
2019-05-23T17:05:41.401Z,33.11
2019-05-23T17:08:34.289Z,33.34
2019-05-23T17:11:29.740Z,33.52
2019-05-23T17:14:18.539Z,32.87
2019-05-23T17:17:13.366Z,32.87
2019-05-23T17:20:18.975Z,34.01
2019-05-23T17:23:00.333Z,34.01
2019-05-23T17:25:44.576Z,34.17
2019-05-23T17:28:25.520Z,33.74
2019-05-23T17:31:05.300Z,33.74
2019-05-23T17:33:40.143Z,33.90
2019-05-23T17:36:14.649Z,33.98
2019-05-23T17:38:49.288Z,34.14
2019-05-23T17:41:24.949Z,34.23
2019-05-23T17:43:59.578Z,33.73
2019-05-23T17:46:34.333Z,33.73
2019-05-23T17:49:08.960Z,34.63
2019-05-23T17:51:43.353Z,34.34
2019-05-23T17:54:18.276Z,34.27
2019-05-23T17:56:53.287Z,34.50
2019-05-23T17:59:29.323Z,35.01
2019-05-23T18:02:05.284Z,35.01
2019-05-23T18:04:39.711Z,35.04
2019-05-23T18:07:13.275Z,35.16
2019-05-23T18:09:47.722Z,35.23
2019-05-23T18:12:22.294Z,35.38
2019-05-23T18:14:58.305Z,35.38
2019-05-23T18:17:33.439Z,35.65
2019-05-23T18:20:09.103Z,36.06
2019-05-23T18:22:44.287Z,36.26
2019-05-23T18:25:19.804Z,36.47
2019-05-23T18:27:52.874Z,36.21
2019-05-23T18:30:39.634Z,36.98
2019-05-23T18:33:17.293Z,37.48
2019-05-23T18:35:53.283Z,37.48
2019-05-23T18:38:28.143Z,37.64
2019-05-23T18:41:08.784Z,37.89
2019-05-23T18:43:40.575Z,38.33
2019-05-23T18:46:26.303Z,38.54
2019-05-23T18:49:01.686Z,39.53
2019-05-23T18:51:34.821Z,40.26
2019-05-23T18:54:09.283Z,41.01
2019-05-23T18:56:43.792Z,40.78
2019-05-23T18:59:17.299Z,41.43
2019-05-23T19:01:51.763Z,41.39
2019-05-23T19:04:24.662Z,41.39
2019-05-23T19:06:59.366Z,42.39
2019-05-23T19:09:34.075Z,42.39
2019-05-23T19:12:09.957Z,43.63
2019-05-23T19:14:44.577Z,43.63
2019-05-23T19:17:18.909Z,42.72
2019-05-23T19:19:53.376Z,42.98
2019-05-23T19:22:28.294Z,42.97
2019-05-23T19:25:03.594Z,43.68
2019-05-23T19:27:38.291Z,43.75
2019-05-23T19:30:14.322Z,43.85
2019-05-23T19:32:49.066Z,45.00
2019-05-23T19:35:23.962Z,44.94
2019-05-23T19:37:58.816Z,44.94
2019-05-23T19:40:33.777Z,45.14
2019-05-23T19:43:08.118Z,45.66
2019-05-23T19:45:42.953Z,46.52
2019-05-23T19:48:17.956Z,46.52
2019-05-23T19:50:53.307Z,46.75
2019-05-23T19:53:28.043Z,46.56
2019-05-23T19:56:02.981Z,46.36
2019-05-23T19:58:37.691Z,46.36
2019-05-23T20:01:12.667Z,46.55
2019-05-23T20:03:48.286Z,46.58
2019-05-23T20:06:22.871Z,46.89
2019-05-23T20:08:58.262Z,47.04
2019-05-23T20:11:33.264Z,46.42
2019-05-23T20:14:07.790Z,46.24
2019-05-23T20:16:40.790Z,46.35
2019-05-23T20:19:15.286Z,45.67
2019-05-23T20:21:49.892Z,45.83
2019-05-23T20:24:22.871Z,46.35
2019-05-23T20:26:57.129Z,46.35
2019-05-23T20:29:31.734Z,46.41
2019-05-23T20:32:07.952Z,46.54
2019-05-23T20:34:42.358Z,46.63
2019-05-23T20:37:17.243Z,47.24
2019-05-23T20:39:51.795Z,48.17
2019-05-23T20:42:24.688Z,47.99
2019-05-23T20:44:59.871Z,47.62
2019-05-23T20:48:13.585Z,47.72
2019-05-23T20:50:48.323Z,48.27
2019-05-23T20:53:22.883Z,48.31
2019-05-23T20:55:55.800Z,49.05
2019-05-23T20:58:29.943Z,48.72
2019-05-23T21:01:27.284Z,48.48
2019-05-23T21:04:02.286Z,48.63
2019-05-23T21:06:37.289Z,48.52
2019-05-23T21:09:15.574Z,48.52
2019-05-23T21:11:48.877Z,48.76
2019-05-23T21:14:23.429Z,49.03
2019-05-23T21:31:28.360Z,48.89
2019-05-23T21:36:31.406Z,49.62
2019-05-23T21:39:08.501Z,49.62
2019-05-23T21:41:42.960Z,49.93
2019-05-23T21:44:17.305Z,49.54
2019-05-23T21:46:52.956Z,49.19
2019-05-23T21:49:27.955Z,49.55
2019-05-23T21:52:02.651Z,49.68
2019-05-23T21:54:37.110Z,49.89
2019-05-23T21:57:11.762Z,50.39
2019-05-23T21:59:44.795Z,50.39
2019-05-23T22:02:31.288Z,50.25
2019-05-23T22:05:11.676Z,50.55
2019-05-23T22:07:46.946Z,50.08
2019-05-23T22:10:21.689Z,50.25
2019-05-23T22:13:04.509Z,49.63
2019-05-23T22:15:39.357Z,49.62
2019-05-23T22:18:14.113Z,49.23
2019-05-23T22:20:48.651Z,49.45
2019-05-23T22:23:23.261Z,49.45
2019-05-23T22:25:57.730Z,49.26
2019-05-23T22:28:32.289Z,49.65
2019-05-23T22:31:07.282Z,49.24
2019-05-23T22:33:45.116Z,49.28
2019-05-23T22:36:20.274Z,49.84
2019-05-23T22:38:54.633Z,49.92
2019-05-23T22:41:29.295Z,50.27
2019-05-23T22:44:03.883Z,50.53
2019-05-23T22:46:37.017Z,50.29
2019-05-23T22:49:09.858Z,50.37
2019-05-23T22:51:44.207Z,50.37
2019-05-23T22:54:18.787Z,50.17
2019-05-23T22:56:51.815Z,50.59
2019-05-23T22:59:26.120Z,50.57
2019-05-23T23:03:29.371Z,50.98
2019-05-23T23:06:04.440Z,51.19
2019-05-23T23:08:39.282Z,51.12
2019-05-23T23:11:13.732Z,51.50
2019-05-23T23:13:48.081Z,51.21
2019-05-23T23:16:22.505Z,51.31
2019-05-23T23:18:57.891Z,51.31
2019-05-23T23:21:32.290Z,51.23
2019-05-23T23:24:07.691Z,51.74
2019-05-23T23:26:42.113Z,51.71
2019-05-23T23:29:16.876Z,51.94
2019-05-23T23:31:49.865Z,51.94
2019-05-23T23:34:24.117Z,51.93
2019-05-23T23:36:58.667Z,52.27
2019-05-23T23:39:32.940Z,52.59
2019-05-23T23:42:07.304Z,52.27
2019-05-23T23:44:40.451Z,52.48
2019-05-23T23:47:32.308Z,52.90
2019-05-23T23:50:24.292Z,52.85
2019-05-23T23:53:16.275Z,53.10
2019-05-23T23:56:07.937Z,53.23
2019-05-23T23:58:41.131Z,53.75
